createdAt,value
2023-04-03T00:01:40.281Z,101996.70
2023-04-03T00:04:09.340Z,102000.73
2023-04-03T00:06:38.296Z,101999.25
2023-04-03T00:09:09.284Z,101999.45
2023-04-03T00:11:39.188Z,102002.89
2023-04-03T00:14:08.192Z,102008.02
2023-04-03T00:16:37.189Z,102004.32
2023-04-03T00:19:06.876Z,102003.51
2023-04-03T00:21:35.825Z,102004.67
2023-04-03T00:24:04.986Z,102008.06
2023-04-03T00:26:33.927Z,102007.80
2023-04-03T00:29:02.869Z,102004.38
2023-04-03T00:31:32.245Z,102007.05
2023-04-03T00:34:01.206Z,102007.89
2023-04-03T00:36:30.861Z,102012.77
2023-04-03T00:38:59.842Z,102010.83
2023-04-03T00:41:29.104Z,102011.22
2023-04-03T00:43:58.085Z,102013.60
2023-04-03T00:46:27.478Z,102013.35
2023-04-03T00:48:56.666Z,102014.64
2023-04-03T00:51:27.214Z,102016.70
2023-04-03T00:53:59.925Z,102016.62
2023-04-03T00:56:31.265Z,102019.30
2023-04-03T00:59:11.460Z,102019.98
2023-04-03T01:01:41.093Z,102023.04
2023-04-03T01:04:46.112Z,102023.02
2023-04-03T01:07:31.319Z,102026.20
2023-04-03T01:10:03.407Z,102028.14
2023-04-03T01:12:35.529Z,102032.02
2023-04-03T01:15:09.168Z,102033.45
2023-04-03T01:17:45.176Z,102031.27
2023-04-03T01:20:29.517Z,102034.02
2023-04-03T01:23:10.704Z,102031.45
2023-04-03T01:26:11.192Z,102031.20
2023-04-03T01:28:40.089Z,102035.20
2023-04-03T01:31:11.878Z,102035.25
2023-04-03T01:33:40.892Z,102037.90
2023-04-03T01:36:11.557Z,102039.07
2023-04-03T01:38:40.498Z,102039.59
2023-04-03T01:41:09.862Z,102043.80
2023-04-03T01:43:38.899Z,102045.81
2023-04-03T01:46:08.991Z,102046.71
2023-04-03T01:48:38.195Z,102052.82
2023-04-03T01:51:07.294Z,102053.58
2023-04-03T01:53:36.247Z,102056.87
2023-04-03T01:56:06.127Z,102053.01
2023-04-03T01:58:35.536Z,102054.62
2023-04-03T02:01:04.552Z,102057.95
2023-04-03T02:03:34.002Z,102055.29
2023-04-03T02:06:03.204Z,102054.92
2023-04-03T02:08:32.156Z,102055.86
2023-04-03T02:11:01.142Z,102054.13
2023-04-03T02:13:30.078Z,102055.84
2023-04-03T02:16:00.210Z,102061.27
2023-04-03T02:18:29.248Z,102064.04
2023-04-03T02:20:58.235Z,102065.97
2023-04-03T02:23:27.141Z,102067.18
2023-04-03T02:26:08.470Z,102065.12
2023-04-03T02:28:37.476Z,102064.52
2023-04-03T02:31:10.380Z,102063.27
2023-04-03T02:33:39.853Z,102065.56
2023-04-03T02:36:09.663Z,102069.48
2023-04-03T02:38:38.559Z,102073.41
2023-04-03T02:41:10.863Z,102073.84
2023-04-03T02:43:40.220Z,102074.77
2023-04-03T02:46:09.534Z,102077.04
2023-04-03T02:48:38.540Z,102078.96
2023-04-03T02:51:07.591Z,102078.08
2023-04-03T02:53:36.476Z,102075.80
2023-04-03T02:56:05.603Z,102084.05
2023-04-03T02:58:34.588Z,102090.02
2023-04-03T03:01:04.331Z,102089.87
2023-04-03T03:03:33.324Z,102089.85
2023-04-03T03:06:07.776Z,102090.05
2023-04-03T03:08:36.779Z,102092.77
2023-04-03T03:11:06.435Z,102089.86
2023-04-03T03:13:36.119Z,102098.20
2023-04-03T03:16:05.817Z,102099.83
2023-04-03T03:18:35.369Z,102100.80
2023-04-03T03:21:05.327Z,102101.56
2023-04-03T03:23:34.326Z,102101.84
2023-04-03T03:26:06.345Z,102100.43
2023-04-03T03:28:37.785Z,102106.52
2023-04-03T03:31:08.288Z,102104.30
2023-04-03T03:33:37.265Z,102108.13
2023-04-03T03:36:06.604Z,102111.66
2023-04-03T03:38:35.692Z,102110.88
2023-04-03T03:41:04.680Z,102111.27
2023-04-03T03:43:33.616Z,102115.16
2023-04-03T03:46:02.577Z,102114.13
2023-04-03T03:48:31.526Z,102112.52
2023-04-03T03:51:00.462Z,102112.36
2023-04-03T03:53:29.388Z,102111.64
2023-04-03T03:55:58.340Z,102110.83
2023-04-03T03:58:27.255Z,102111.67
2023-04-03T04:00:56.253Z,102110.54
2023-04-03T04:03:25.416Z,102112.46
2023-04-03T04:05:54.423Z,102113.55
2023-04-03T04:08:24.332Z,102115.43
2023-04-03T04:10:53.307Z,102114.41
2023-04-03T04:13:22.724Z,102118.63
2023-04-03T04:15:51.630Z,102119.36
2023-04-03T04:18:22.362Z,102121.52
2023-04-03T04:20:51.551Z,102123.31
2023-04-03T04:23:20.857Z,102120.39
2023-04-03T04:25:50.230Z,102127.83
2023-04-03T04:28:19.425Z,102125.35
2023-04-03T04:30:48.416Z,102129.42
2023-04-03T04:33:17.467Z,102130.17
2023-04-03T04:35:49.689Z,102136.12
2023-04-03T04:38:18.832Z,102140.84
2023-04-03T04:40:49.180Z,102141.71
2023-04-03T04:43:18.328Z,102147.84
2023-04-03T04:45:48.045Z,102143.06
2023-04-03T04:48:17.260Z,102142.83
2023-04-03T04:50:46.908Z,102144.58
2023-04-03T04:53:15.872Z,102146.41
2023-04-03T04:55:45.082Z,102150.13
2023-04-03T04:58:13.948Z,102149.33
2023-04-03T05:00:42.962Z,102149.90
2023-04-03T05:03:12.289Z,102149.14
2023-04-03T05:05:41.552Z,102150.55
2023-04-03T05:08:10.525Z,102155.40
2023-04-03T05:10:41.761Z,102152.18
2023-04-03T05:13:10.690Z,102152.06
2023-04-03T05:15:39.991Z,102158.71
2023-04-03T05:18:09.316Z,102158.08
2023-04-03T05:20:40.085Z,102165.75
2023-04-03T05:23:09.211Z,102161.19
2023-04-03T05:25:40.022Z,102161.25
2023-04-03T05:28:09.004Z,102167.70
2023-04-03T05:30:38.000Z,102172.15
2023-04-03T05:33:07.111Z,102171.36
2023-04-03T05:35:40.470Z,102174.75
2023-04-03T05:38:09.625Z,102173.14
2023-04-03T05:40:38.698Z,102178.27
2023-04-03T05:43:07.660Z,102178.10
2023-04-03T05:45:36.808Z,102180.30
2023-04-03T05:48:05.830Z,102177.73
2023-04-03T05:50:34.800Z,102179.63
2023-04-03T05:53:05.076Z,102178.74
2023-04-03T05:55:33.958Z,102179.85
2023-04-03T05:58:02.883Z,102178.51
2023-04-03T06:00:32.180Z,102185.14
2023-04-03T06:03:01.283Z,102186.52
2023-04-03T06:05:30.420Z,102188.34
2023-04-03T06:07:59.467Z,102191.66
2023-04-03T06:10:28.354Z,102192.31
2023-04-03T06:12:57.275Z,102196.41
2023-04-03T06:15:26.238Z,102191.95
2023-04-03T06:17:55.307Z,102200.72
2023-04-03T06:20:24.287Z,102199.11
2023-04-03T06:22:53.270Z,102199.33
2023-04-03T06:25:22.326Z,102201.30
2023-04-03T06:27:51.309Z,102199.84
2023-04-03T06:30:20.539Z,102201.02
2023-04-03T06:32:49.783Z,102200.63
2023-04-03T06:35:18.899Z,102206.98
2023-04-03T06:37:47.828Z,102207.39
2023-04-03T06:40:22.359Z,102210.39
2023-04-03T06:42:51.451Z,102209.25
2023-04-03T06:45:20.529Z,102209.20
2023-04-03T06:47:49.508Z,102211.68
2023-04-03T06:50:18.454Z,102216.56
2023-04-03T06:52:47.529Z,102214.94
2023-04-03T06:55:16.565Z,102219.02
2023-04-03T06:57:45.557Z,102219.29
2023-04-03T07:00:15.835Z,102217.70
2023-04-03T07:02:44.799Z,102220.33
2023-04-03T07:05:14.297Z,102225.69
2023-04-03T07:07:43.230Z,102226.52
2023-04-03T07:10:12.414Z,102232.39
2023-04-03T07:12:41.597Z,102229.11
2023-04-03T07:15:12.162Z,102228.06
2023-04-03T07:17:41.794Z,102234.98
2023-04-03T07:20:11.708Z,102240.39
2023-04-03T07:22:41.189Z,102234.21
2023-04-03T07:25:10.166Z,102239.82
2023-04-03T07:27:39.125Z,102242.00
2023-04-03T07:30:08.770Z,102245.89
2023-04-03T07:32:38.084Z,102246.09
2023-04-03T07:35:07.513Z,102248.42
2023-04-03T07:37:36.854Z,102252.15
2023-04-03T07:40:07.818Z,102253.52
2023-04-03T07:42:38.209Z,102257.30
2023-04-03T07:45:07.873Z,102260.11
2023-04-03T07:47:37.245Z,102261.71
2023-04-03T07:50:07.058Z,102258.73
2023-04-03T07:52:36.254Z,102261.05
2023-04-03T07:55:05.889Z,102263.27
2023-04-03T07:57:35.088Z,102259.08
2023-04-03T08:00:05.903Z,102257.00
2023-04-03T08:02:34.886Z,102257.54
2023-04-03T08:05:04.221Z,102263.44
2023-04-03T08:07:33.141Z,102262.05
2023-04-03T08:10:02.112Z,102264.38
2023-04-03T08:12:32.975Z,102264.02
2023-04-03T08:15:02.447Z,102268.43
2023-04-03T08:17:31.467Z,102266.09
2023-04-03T08:20:00.381Z,102272.41
2023-04-03T08:22:29.325Z,102275.76
2023-04-03T08:24:59.501Z,102276.08
2023-04-03T08:27:29.667Z,102280.77
2023-04-03T08:29:58.804Z,102280.84
2023-04-03T08:32:28.097Z,102280.63
2023-04-03T08:34:57.139Z,102281.66
2023-04-03T08:37:26.480Z,102278.84
2023-04-03T08:39:55.517Z,102276.92
2023-04-03T08:42:41.597Z,102275.31
2023-04-03T08:45:34.943Z,102277.34
2023-04-03T08:48:42.175Z,102276.96
2023-04-03T08:51:17.597Z,102270.67
2023-04-03T08:54:05.352Z,102276.77
2023-04-03T08:56:35.880Z,102279.13
2023-04-03T08:59:22.526Z,102285.39
2023-04-03T09:01:52.653Z,102270.90
2023-04-03T09:04:21.658Z,102276.93
2023-04-03T09:06:56.670Z,102276.06
2023-04-03T09:09:37.772Z,102275.16
2023-04-03T09:12:33.298Z,102270.31
2023-04-03T09:15:37.766Z,102268.59
2023-04-03T09:18:33.725Z,102268.76
2023-04-03T09:21:08.971Z,102265.79
2023-04-03T09:23:51.388Z,102266.55
2023-04-03T09:26:54.972Z,102264.95
2023-04-03T09:29:25.500Z,102257.59
2023-04-03T09:32:01.228Z,102257.96
2023-04-03T09:34:36.364Z,102262.92
2023-04-03T09:37:09.878Z,102261.73
2023-04-03T09:39:57.173Z,102261.89
2023-04-03T09:42:27.427Z,102263.89
2023-04-03T09:45:05.041Z,102275.84
2023-04-03T09:47:37.481Z,102274.20
2023-04-03T09:50:15.052Z,102264.27
2023-04-03T09:52:50.828Z,102264.64
2023-04-03T09:55:28.352Z,102261.90
2023-04-03T09:58:36.147Z,102265.90
2023-04-03T10:01:29.279Z,102270.96
2023-04-03T10:04:18.985Z,102265.17
2023-04-03T10:06:51.930Z,102260.10
2023-04-03T10:09:25.138Z,102255.30
2023-04-03T10:12:10.322Z,102256.60
2023-04-03T10:14:42.435Z,102255.98
2023-04-03T10:17:17.560Z,102258.13
2023-04-03T10:19:53.878Z,102265.71
2023-04-03T10:22:22.840Z,102260.58
2023-04-03T10:25:06.571Z,102269.16
2023-04-03T10:28:03.988Z,102265.27
2023-04-03T10:30:57.311Z,102258.50
2023-04-03T10:33:37.926Z,102260.70
2023-04-03T10:36:38.555Z,102257.73
2023-04-03T10:39:19.358Z,102259.38
2023-04-03T10:41:58.017Z,102245.14
2023-04-03T10:44:49.987Z,102239.98
2023-04-03T10:47:28.557Z,102242.02
2023-04-03T10:50:02.489Z,102239.14
2023-04-03T10:52:56.334Z,102234.98
2023-04-03T10:55:44.656Z,102232.80
2023-04-03T10:58:22.986Z,102245.54
2023-04-03T11:00:56.169Z,102240.73
2023-04-03T11:03:34.093Z,102240.06
2023-04-03T11:06:09.416Z,102245.05
2023-04-03T11:09:25.800Z,102241.88
2023-04-03T11:12:02.904Z,102235.49
2023-04-03T11:14:38.220Z,102235.69
2023-04-03T11:17:12.786Z,102238.23
2023-04-03T11:20:02.731Z,102235.20
2023-04-03T11:22:44.725Z,102230.13
2023-04-03T11:25:13.609Z,102224.59
2023-04-03T11:27:59.309Z,102230.01
2023-04-03T11:30:43.713Z,102225.16
2023-04-03T11:33:12.677Z,102225.67
2023-04-03T11:35:48.526Z,102224.11
2023-04-03T11:38:31.622Z,102226.00
2023-04-03T11:41:01.226Z,102229.16
2023-04-03T11:43:32.977Z,102232.20
2023-04-03T11:46:03.588Z,102222.88
2023-04-03T11:48:32.718Z,102224.71
2023-04-03T11:51:13.928Z,102218.80
2023-04-03T11:53:43.752Z,102213.52
2023-04-03T11:56:24.881Z,102210.39
2023-04-03T11:59:05.953Z,102219.40
2023-04-03T12:01:57.655Z,102214.35
2023-04-03T12:04:28.780Z,102217.16
2023-04-03T12:07:17.911Z,102216.41
2023-04-03T12:09:46.770Z,102215.81
2023-04-03T12:12:33.648Z,102214.34
2023-04-03T12:15:27.346Z,102212.34
2023-04-03T12:17:56.667Z,102211.80
2023-04-03T12:20:56.122Z,102207.80
2023-04-03T12:23:34.314Z,102206.66
2023-04-03T12:26:16.572Z,102197.52
2023-04-03T12:28:47.751Z,102202.02
2023-04-03T12:31:18.164Z,102214.81
2023-04-03T12:34:15.380Z,102216.55
2023-04-03T12:37:01.324Z,102208.06
2023-04-03T12:39:42.611Z,102208.85
2023-04-03T12:42:21.590Z,102193.90
2023-04-03T12:45:03.277Z,102190.56
2023-04-03T12:47:41.100Z,102188.96
2023-04-03T12:50:28.612Z,102188.19
2023-04-03T12:53:01.576Z,102189.63
2023-04-03T12:55:30.896Z,102189.48
2023-04-03T12:58:25.056Z,102191.26
2023-04-03T13:01:15.055Z,102190.02
2023-04-03T13:03:48.402Z,102190.98
2023-04-03T13:06:32.197Z,102190.92
2023-04-03T13:09:02.242Z,102184.94
2023-04-03T13:11:43.095Z,102186.20
2023-04-03T13:14:26.474Z,102178.67
2023-04-03T13:17:04.019Z,102184.52
2023-04-03T13:19:33.046Z,102184.61
2023-04-03T13:22:06.739Z,102182.50
2023-04-03T13:24:39.839Z,102188.30
2023-04-03T13:27:12.817Z,102182.83
2023-04-03T13:29:42.138Z,102184.00
2023-04-03T13:32:27.520Z,102194.74
2023-04-03T13:35:00.386Z,102191.58
2023-04-03T13:37:36.153Z,102190.90
2023-04-03T13:43:20.915Z,102173.21
2023-04-03T13:46:08.193Z,102169.80
2023-04-03T13:48:44.595Z,102172.90
2023-04-03T13:51:13.418Z,102170.73
2023-04-03T13:53:53.743Z,102169.13
2023-04-03T13:56:27.185Z,102169.21
2023-04-03T13:59:22.515Z,102171.29
2023-04-03T14:01:55.943Z,102165.90
2023-04-03T14:04:30.769Z,102160.03
2023-04-03T14:07:00.549Z,102162.31
2023-04-03T14:09:29.646Z,102169.99
2023-04-03T14:12:06.006Z,102169.45
2023-04-03T14:14:37.518Z,102167.16
2023-04-03T14:17:25.039Z,102165.95
2023-04-03T14:19:56.722Z,102171.27
2023-04-03T14:22:31.202Z,102170.23
2023-04-03T14:25:00.618Z,102163.51
2023-04-03T14:27:35.335Z,102165.55
2023-04-03T14:30:07.019Z,102161.65
2023-04-03T14:32:36.159Z,102162.52
2023-04-03T14:35:05.758Z,102167.44
2023-04-03T14:37:35.085Z,102172.98
2023-04-03T14:40:05.748Z,102177.67
2023-04-03T14:42:37.629Z,102175.98
2023-04-03T14:45:11.650Z,102175.10
2023-04-03T14:47:47.718Z,102172.86
2023-04-03T14:50:22.281Z,102173.35
2023-04-03T14:52:55.061Z,102167.98
2023-04-03T14:55:26.045Z,102160.16
2023-04-03T14:57:55.484Z,102157.04
2023-04-03T15:00:24.492Z,102165.46
2023-04-03T15:02:53.676Z,102167.52
2023-04-03T15:05:22.880Z,102164.63
2023-04-03T15:07:55.602Z,102167.05
2023-04-03T15:10:26.752Z,102164.63
2023-04-03T15:12:56.836Z,102164.39
2023-04-03T15:15:29.411Z,102157.79
2023-04-03T15:17:59.238Z,102163.05
2023-04-03T15:20:31.956Z,102163.39
2023-04-03T15:23:02.466Z,102161.70
2023-04-03T15:25:33.447Z,102161.67
2023-04-03T15:28:02.645Z,102156.98
2023-04-03T15:30:31.790Z,102150.00
2023-04-03T15:33:00.775Z,102159.08
2023-04-03T15:35:29.778Z,102156.14
2023-04-03T15:37:58.669Z,102164.92
2023-04-03T15:40:27.615Z,102168.35
2023-04-03T15:42:56.602Z,102164.52
2023-04-03T15:45:25.901Z,102165.88
2023-04-03T15:47:54.903Z,102167.42
2023-04-03T15:50:25.010Z,102163.66
2023-04-03T15:52:59.039Z,102164.05
2023-04-03T15:55:30.616Z,102160.51
2023-04-03T15:57:59.986Z,102162.25
2023-04-03T16:00:30.318Z,102161.27
2023-04-03T16:03:05.088Z,102159.88
2023-04-03T16:05:36.417Z,102162.98
2023-04-03T16:08:07.180Z,102163.73
2023-04-03T16:10:37.646Z,102161.52
2023-04-03T16:13:07.386Z,102162.44
2023-04-03T16:15:36.701Z,102161.58
2023-04-03T16:18:06.711Z,102167.74
2023-04-03T16:20:35.978Z,102169.35
2023-04-03T16:23:05.684Z,102173.81
2023-04-03T16:25:34.609Z,102175.41
2023-04-03T16:28:03.851Z,102177.07
2023-04-03T16:30:32.832Z,102173.27
2023-04-03T16:33:02.724Z,102177.02
2023-04-03T16:35:31.664Z,102179.24
2023-04-03T16:38:00.709Z,102173.73
2023-04-03T16:40:30.372Z,102175.27
2023-04-03T16:42:59.338Z,102174.41
2023-04-03T16:45:28.559Z,102174.46
2023-04-03T16:47:57.436Z,102178.42
2023-04-03T16:50:26.454Z,102190.11
2023-04-03T16:52:55.585Z,102181.73
2023-04-03T16:55:24.475Z,102183.16
2023-04-03T16:57:53.750Z,102183.99
2023-04-03T17:00:22.937Z,102180.25
2023-04-03T17:02:51.922Z,102181.13
2023-04-03T17:05:21.203Z,102181.95
2023-04-03T17:07:50.102Z,102184.48
2023-04-03T17:10:19.227Z,102185.11
2023-04-03T17:12:48.197Z,102183.95
2023-04-03T17:15:17.185Z,102182.36
2023-04-03T17:17:46.644Z,102181.30
2023-04-03T17:20:15.881Z,102177.64
2023-04-03T17:22:45.688Z,102181.27
2023-04-03T17:25:15.861Z,102179.63
2023-04-03T17:27:44.784Z,102175.11
2023-04-03T17:30:13.798Z,102180.20
2023-04-03T17:32:42.769Z,102180.57
2023-04-03T17:35:11.838Z,102185.33
2023-04-03T17:37:40.967Z,102185.07
2023-04-03T17:40:10.473Z,102190.08
2023-04-03T17:42:39.490Z,102189.93
2023-04-03T17:45:08.854Z,102189.80
2023-04-03T17:47:37.768Z,102189.44
2023-04-03T17:50:07.379Z,102189.64
2023-04-03T17:52:36.391Z,102190.70
2023-04-03T17:55:05.804Z,102190.18
2023-04-03T17:57:34.788Z,102190.55
2023-04-03T18:00:04.869Z,102191.23
2023-04-03T18:02:33.971Z,102182.55
2023-04-03T18:05:03.131Z,102195.41
2023-04-03T18:07:32.080Z,102196.51
2023-04-03T18:10:01.084Z,102195.02
2023-04-03T18:12:30.055Z,102193.61
2023-04-03T18:15:00.458Z,102198.52
2023-04-03T18:17:29.448Z,102197.02
2023-04-03T18:19:58.490Z,102196.62
2023-04-03T18:22:29.091Z,102200.03
2023-04-03T18:24:58.653Z,102203.08
2023-04-03T18:27:28.267Z,102199.15
2023-04-03T18:30:01.707Z,102200.75
2023-04-03T18:32:30.826Z,102200.41
2023-04-03T18:35:01.093Z,102207.35
2023-04-03T18:37:30.213Z,102209.52
2023-04-03T18:39:59.089Z,102207.73
2023-04-03T18:42:28.302Z,102209.84
2023-04-03T18:45:01.871Z,102209.73
2023-04-03T18:47:32.038Z,102202.97
2023-04-03T18:50:01.043Z,102207.44
2023-04-03T18:52:30.072Z,102205.61
2023-04-03T18:54:59.006Z,102205.25
2023-04-03T18:57:27.959Z,102203.02
2023-04-03T18:59:56.867Z,102203.83
2023-04-03T19:02:27.071Z,102200.59
2023-04-03T19:04:56.857Z,102197.23
2023-04-03T19:07:25.774Z,102194.27
2023-04-03T19:09:55.554Z,102195.77
2023-04-03T19:12:25.484Z,102196.55
2023-04-03T19:14:54.377Z,102195.68
2023-04-03T19:17:23.224Z,102197.40
2023-04-03T19:19:52.187Z,102197.42
2023-04-03T19:22:21.098Z,102198.04
2023-04-03T19:24:49.971Z,102199.63
2023-04-03T19:27:18.837Z,102199.78
2023-04-03T19:29:50.185Z,102196.61
2023-04-03T19:32:19.188Z,102200.44
2023-04-03T19:34:48.351Z,102199.34
2023-04-03T19:37:18.423Z,102200.87
2023-04-03T19:39:47.329Z,102201.02
2023-04-03T19:42:16.359Z,102206.70
2023-04-03T19:44:47.155Z,102206.77
2023-04-03T19:47:17.899Z,102206.73
2023-04-03T19:49:46.889Z,102208.69
2023-04-03T19:52:16.082Z,102209.15
2023-04-03T19:54:44.973Z,102205.60
2023-04-03T19:57:14.351Z,102211.16
2023-04-03T19:59:43.604Z,102210.80
2023-04-03T20:02:12.594Z,102212.36
2023-04-03T20:04:41.588Z,102211.58
2023-04-03T20:07:11.192Z,102208.23
2023-04-03T20:09:40.144Z,102209.39
2023-04-03T20:12:10.763Z,102208.91
2023-04-03T20:14:41.152Z,102207.97
2023-04-03T20:17:10.066Z,102208.18
2023-04-03T20:19:38.941Z,102214.00
2023-04-03T20:22:07.844Z,102211.85
2023-04-03T20:24:36.808Z,102214.21
2023-04-03T20:27:05.698Z,102213.44
2023-04-03T20:29:37.608Z,102215.44
2023-04-03T20:32:07.506Z,102216.81
2023-04-03T20:34:36.381Z,102213.08
2023-04-03T20:37:06.150Z,102216.23
2023-04-03T20:39:36.358Z,102211.39
2023-04-03T20:42:05.483Z,102216.10
2023-04-03T20:44:34.520Z,102214.68
2023-04-03T20:47:04.027Z,102212.23
2023-04-03T20:49:33.046Z,102214.11
2023-04-03T20:52:02.459Z,102214.05
2023-04-03T20:54:32.681Z,102212.11
2023-04-03T20:57:02.606Z,102208.27
2023-04-03T20:59:32.935Z,102207.00
2023-04-03T21:02:01.869Z,102210.36
2023-04-03T21:04:39.523Z,102210.20
2023-04-03T21:07:46.796Z,102196.92
2023-04-03T21:10:53.391Z,102210.29
2023-04-03T21:14:01.235Z,102212.55
2023-04-03T21:16:30.906Z,102213.16
2023-04-03T21:19:12.428Z,102207.64
2023-04-03T21:21:45.767Z,102207.14
2023-04-03T21:24:18.466Z,102206.59
2023-04-03T21:26:47.763Z,102207.11
2023-04-03T21:29:16.782Z,102210.49
2023-04-03T21:31:57.983Z,102208.07
2023-04-03T21:34:29.192Z,102208.14
2023-04-03T21:37:06.189Z,102208.48
2023-04-03T21:39:35.119Z,102206.74
2023-04-03T21:42:04.151Z,102207.98
2023-04-03T21:44:33.044Z,102212.96
2023-04-03T21:47:01.957Z,102213.56
2023-04-03T21:49:30.841Z,102213.56
2023-04-03T21:51:59.778Z,102217.91
2023-04-03T21:54:29.257Z,102218.16
2023-04-03T21:56:58.174Z,102218.33
2023-04-03T21:59:27.238Z,102218.70
2023-04-03T22:01:56.549Z,102213.68
2023-04-03T22:04:26.833Z,102215.88
2023-04-03T22:06:59.646Z,102212.60
2023-04-03T22:09:28.613Z,102213.36
2023-04-03T22:11:57.499Z,102216.23
2023-04-03T22:14:26.462Z,102212.80
2023-04-03T22:16:55.580Z,102213.97
2023-04-03T22:19:24.428Z,102215.55
2023-04-03T22:21:53.734Z,102213.43
2023-04-03T22:24:22.733Z,102216.06
2023-04-03T22:26:51.620Z,102218.48
2023-04-03T22:29:21.142Z,102217.10
2023-04-03T22:31:50.088Z,102222.57
2023-04-03T22:34:19.898Z,102222.45
2023-04-03T22:36:48.799Z,102221.27
2023-04-03T22:39:19.438Z,102224.20
2023-04-03T22:41:48.440Z,102222.63
2023-04-03T22:44:18.042Z,102218.95
2023-04-03T22:46:47.604Z,102219.23
2023-04-03T22:49:17.255Z,102218.02
2023-04-03T22:51:46.769Z,102221.39
2023-04-03T22:54:15.851Z,102218.77
2023-04-03T22:56:44.757Z,102220.07
2023-04-03T22:59:13.648Z,102222.49
2023-04-03T23:01:42.636Z,102219.44
2023-04-03T23:04:12.391Z,102221.39
2023-04-03T23:06:41.780Z,102218.36
2023-04-03T23:09:10.758Z,102218.16
2023-04-03T23:11:39.796Z,102216.13
2023-04-03T23:14:08.716Z,102217.34
2023-04-03T23:16:37.752Z,102216.84
2023-04-03T23:19:07.352Z,102215.33
2023-04-03T23:21:36.492Z,102216.06
2023-04-03T23:24:05.615Z,102211.39
2023-04-03T23:26:34.503Z,102213.80
2023-04-03T23:29:03.701Z,102212.79
2023-04-03T23:31:32.607Z,102207.45
2023-04-03T23:34:01.561Z,102212.47
2023-04-03T23:36:30.860Z,102209.80
2023-04-03T23:38:59.749Z,102207.63
2023-04-03T23:41:28.664Z,102205.89
2023-04-03T23:43:57.546Z,102204.35
2023-04-03T23:46:26.989Z,102202.64
2023-04-03T23:48:55.979Z,102202.45
2023-04-03T23:51:24.963Z,102202.13
2023-04-03T23:53:53.887Z,102201.42
2023-04-03T23:56:23.141Z,102199.13
2023-04-03T23:58:52.388Z,102199.39
